Time;durP1;ratioP1;P1;durP2;ratioP2;P2;SDS_P1;SDS_P2;PMS_P1;PMS_P2;Temp;Humidity;BMP_temperature;BMP_pressure;BME280_temperature;BME280_humidity;BME280_pressure;Samples;Min_cycle;Max_cycle;Signal;HPM_P1;HPM_P2
2021/12/25 00:02:28;;;;;;;0.10;0.10;;;;;;;-7.97;100.00;100457.28;4990169;28;20046;-79
2021/12/25 00:04:56;;;;;;;0.10;0.10;;;;;;;-8.01;100.00;100455.13;4991665;28;20042;-80
2021/12/25 00:07:26;;;;;;;0.15;0.15;;;;;;;-8.11;100.00;100458.75;4986781;28;20042;-79
2021/12/25 00:10:00;;;;;;;0.10;0.10;;;;;;;-8.06;100.00;100471.47;4988144;28;20058;-80
2021/12/25 00:12:33;;;;;;;0.20;0.20;;;;;;;-8.08;100.00;100458.44;4987311;28;20046;-80
2021/12/25 00:15:07;;;;;;;0.20;0.20;;;;;;;-8.08;100.00;100465.53;4989982;28;20061;-80
2021/12/25 00:17:40;;;;;;;0.10;0.10;;;;;;;-8.04;100.00;100472.97;4984512;28;20053;-80
2021/12/25 00:20:13;;;;;;;0.10;0.10;;;;;;;-8.03;100.00;100476.44;4989209;28;20057;-80
2021/12/25 00:22:43;;;;;;;0.10;0.10;;;;;;;-8.11;100.00;100466.66;4986150;28;20061;-79
2021/12/25 00:25:16;;;;;;;0.20;0.20;;;;;;;-8.04;100.00;100480.06;4986633;28;20045;-79
2021/12/25 00:27:58;;;;;;;0.10;0.10;;;;;;;-8.04;100.00;100482.69;4991504;28;20050;-79
2021/12/25 00:30:35;;;;;;;0.10;0.10;;;;;;;-8.10;100.00;100494.75;4991870;28;20042;-80
2021/12/25 00:33:30;;;;;;;0.10;0.10;;;;;;;-8.10;100.00;100493.94;4988476;28;20514;-80
2021/12/25 00:35:56;;;;;;;0.20;0.20;;;;;;;-8.17;100.00;100501.66;4987191;28;20058;-80
2021/12/25 00:38:26;;;;;;;0.10;0.10;;;;;;;-8.22;100.00;100499.50;4992866;28;20383;-80
2021/12/25 00:40:59;;;;;;;0.20;0.20;;;;;;;-8.24;100.00;100509.41;4992220;28;20054;-80
2021/12/25 00:43:34;;;;;;;0.20;0.20;;;;;;;-8.32;100.00;100519.13;4994048;28;20058;-79
2021/12/25 00:46:07;;;;;;;0.20;0.20;;;;;;;-8.35;100.00;100516.78;4990257;28;20054;-80
2021/12/25 00:48:40;;;;;;;0.15;0.15;;;;;;;-8.38;100.00;100525.88;4985272;28;20706;-80
2021/12/25 00:51:13;;;;;;;0.10;0.10;;;;;;;-8.33;100.00;100530.66;4986376;28;20495;-80
2021/12/25 00:53:48;;;;;;;0.15;0.15;;;;;;;-8.35;100.00;100533.47;4989636;28;20070;-80
2021/12/25 00:56:22;;;;;;;0.15;0.15;;;;;;;-8.38;100.00;100534.59;4986844;28;20054;-79
2021/12/25 00:58:56;;;;;;;0.10;0.10;;;;;;;-8.37;100.00;100548.59;4989372;28;20138;-80
2021/12/25 01:01:30;;;;;;;0.10;0.10;;;;;;;-8.47;100.00;100546.13;4985952;28;20050;-80
2021/12/25 01:04:03;;;;;;;0.10;0.10;;;;;;;-8.57;100.00;100545.44;4989795;28;20058;-79
2021/12/25 01:06:37;;;;;;;0.10;0.10;;;;;;;-8.58;100.00;100551.69;4998782;28;20121;-79
2021/12/25 01:09:11;;;;;;;0.10;0.10;;;;;;;-8.52;100.00;100566.88;4989043;28;20042;-79
2021/12/25 01:11:48;;;;;;;0.13;0.13;;;;;;;-8.51;100.00;100559.81;4987272;28;20365;-80
2021/12/25 01:14:31;;;;;;;0.10;0.10;;;;;;;-8.53;100.00;100562.63;4988576;28;20383;-79
2021/12/25 01:20:47;;;;;;;0.13;0.13;;;;;;;-8.60;100.00;100567.69;4954139;28;20047;-79
2021/12/25 01:23:53;;;;;;;0.10;0.10;;;;;;;-8.63;100.00;100572.44;4986776;28;20058;-80
2021/12/25 01:32:39;;;;;;;0.10;0.10;;;;;;;-8.58;100.00;100570.97;5072986;28;20407;-81
2021/12/25 01:38:39;;;;;;;0.10;0.10;;;;;;;-8.56;100.00;100578.72;5106216;27;20403;-80
2021/12/25 01:41:57;;;;;;;0.20;0.20;;;;;;;-8.59;100.00;100572.00;5115005;27;20059;-81
2021/12/25 01:47:48;;;;;;;0.20;0.20;;;;;;;-8.66;100.00;100576.22;5106412;28;20044;-80
2021/12/25 01:50:25;;;;;;;0.10;0.10;;;;;;;-8.55;100.00;100590.94;5104565;28;20063;-80
2021/12/25 01:52:58;;;;;;;0.20;0.20;;;;;;;-8.58;100.00;100583.34;5107523;28;20035;-80
2021/12/25 01:55:33;;;;;;;0.20;0.20;;;;;;;-8.64;100.00;100574.25;5107668;28;20048;-80
2021/12/25 01:58:07;;;;;;;0.10;0.10;;;;;;;-8.60;100.00;100586.16;5118994;27;20053;-79
2021/12/25 02:00:43;;;;;;;0.20;0.20;;;;;;;-8.76;100.00;100568.41;5107248;28;20498;-80
2021/12/25 02:03:14;;;;;;;0.10;0.10;;;;;;;-8.61;100.00;100589.78;5118784;27;20063;-80
2021/12/25 02:05:47;;;;;;;0.10;0.10;;;;;;;-8.57;100.00;100595.56;5104680;28;20059;-80
2021/12/25 02:08:21;;;;;;;0.20;0.20;;;;;;;-8.67;100.00;100585.13;5105135;28;20047;-80
2021/12/25 02:10:57;;;;;;;0.10;0.10;;;;;;;-8.66;100.00;100594.69;5100521;28;20048;-80
2021/12/25 02:13:26;;;;;;;0.10;0.10;;;;;;;-8.60;100.00;100599.34;5107821;28;20044;-80
2021/12/25 02:16:05;;;;;;;0.20;0.20;;;;;;;-8.64;100.00;100589.28;5106867;28;20502;-80
2021/12/25 02:18:54;;;;;;;0.20;0.20;;;;;;;-8.64;100.00;100597.19;5096953;28;20048;-80
2021/12/25 02:21:57;;;;;;;0.10;0.10;;;;;;;-8.73;100.00;100597.13;5097091;28;20381;-80
2021/12/25 02:24:25;;;;;;;0.10;0.10;;;;;;;-8.70;100.00;100588.06;5097972;28;20460;-80
2021/12/25 02:26:59;;;;;;;0.10;0.10;;;;;;;-8.68;100.00;100599.31;5105172;28;20054;-80
2021/12/25 02:29:27;;;;;;;0.20;0.20;;;;;;;-8.67;100.00;100600.97;5103307;28;20052;-80
2021/12/25 02:32:02;;;;;;;0.10;0.10;;;;;;;-8.71;100.00;100594.34;5103996;28;20059;-80
2021/12/25 02:34:34;;;;;;;0.10;0.10;;;;;;;-8.68;100.00;100606.41;5103059;28;20756;-80
2021/12/25 02:37:04;;;;;;;0.10;0.10;;;;;;;-8.72;100.00;100600.59;5100916;28;20056;-80
2021/12/25 02:39:39;;;;;;;0.10;0.10;;;;;;;-8.68;100.00;100611.69;5105350;28;20637;-80
2021/12/25 02:42:12;;;;;;;0.20;0.20;;;;;;;-8.73;100.00;100615.59;5106553;28;20044;-80
2021/12/25 02:44:45;;;;;;;0.10;0.10;;;;;;;-8.69;100.00;100604.75;5101352;28;20048;-80
2021/12/25 02:47:20;;;;;;;0.10;0.10;;;;;;;-8.66;100.00;100618.44;5099400;28;20420;-80
2021/12/25 02:49:54;;;;;;;0.20;0.20;;;;;;;-8.71;100.00;100620.72;5093799;28;20515;-80
2021/12/25 02:52:28;;;;;;;0.20;0.20;;;;;;;-8.70;100.00;100625.00;5092716;28;20495;-80
2021/12/25 02:55:02;;;;;;;0.10;0.10;;;;;;;-8.81;100.00;100631.38;5093425;28;20075;-80
2021/12/25 02:57:35;;;;;;;0.10;0.10;;;;;;;-8.86;100.00;100636.28;5094196;28;20036;-80
2021/12/25 03:00:09;;;;;;;0.10;0.10;;;;;;;-8.86;100.00;100627.53;5086622;28;20075;-79
2021/12/25 03:02:37;;;;;;;0.10;0.10;;;;;;;-8.84;100.00;100634.31;5101379;28;20055;-80
2021/12/25 03:05:06;;;;;;;0.30;0.30;;;;;;;-8.80;100.00;100633.00;5094030;28;20399;-80
2021/12/25 03:07:36;;;;;;;0.20;0.20;;;;;;;-8.85;100.00;100626.53;5087908;28;20055;-80
2021/12/25 03:10:11;;;;;;;0.20;0.20;;;;;;;-8.83;100.00;100633.31;5090101;28;20055;-80
2021/12/25 03:12:48;;;;;;;0.20;0.20;;;;;;;-8.78;100.00;100635.50;5089451;28;20052;-80
2021/12/25 03:15:26;;;;;;;;;;;;;;;-8.85;100.00;100639.72;5095621;28;20051;-79
2021/12/25 03:18:00;;;;;;;0.10;0.10;;;;;;;-8.83;100.00;100632.50;5088804;28;19932;-80
2021/12/25 03:20:33;;;;;;;0.20;0.20;;;;;;;-8.92;100.00;100634.25;5089193;28;20491;-79
2021/12/25 03:23:08;;;;;;;0.10;0.10;;;;;;;-9.01;100.00;100657.09;5091233;28;20036;-79
2021/12/25 03:25:43;;;;;;;0.13;0.13;;;;;;;-8.97;100.00;100653.16;5105118;28;20055;-79
2021/12/25 03:28:18;;;;;;;0.10;0.10;;;;;;;-8.94;100.00;100658.13;5091848;28;20095;-79
2021/12/25 03:30:53;;;;;;;0.10;0.10;;;;;;;-9.10;100.00;100643.03;5093370;28;20058;-78
2021/12/25 03:33:28;;;;;;;0.10;0.10;;;;;;;-8.99;100.00;100655.16;5091452;28;20130;-79
2021/12/25 03:35:56;;;;;;;0.10;0.10;;;;;;;-9.00;100.00;100656.13;5087385;28;20055;-79
2021/12/25 03:38:31;;;;;;;0.10;0.10;;;;;;;-8.91;100.00;100665.75;5079256;28;20126;-79
2021/12/25 03:41:06;;;;;;;0.10;0.10;;;;;;;-8.87;100.00;100663.63;5091945;28;20039;-79
2021/12/25 03:43:42;;;;;;;0.10;0.10;;;;;;;-8.99;100.00;100662.22;5091786;28;20114;-79
2021/12/25 03:46:17;;;;;;;0.20;0.20;;;;;;;-8.99;100.00;100663.06;5083832;28;20047;-79
2021/12/25 03:57:42;;;;;;;0.10;0.10;;;;;;;-9.13;100.00;100667.03;5083833;28;20056;-79
2021/12/25 04:00:16;;;;;;;0.17;0.17;;;;;;;-9.09;100.00;100659.66;5084351;28;20052;-79
2021/12/25 04:02:55;;;;;;;0.10;0.10;;;;;;;-9.07;100.00;100668.25;5100418;28;20055;-79
2021/12/25 04:05:41;;;;;;;0.10;0.10;;;;;;;-9.09;100.00;100665.75;5089794;28;20058;-78
2021/12/25 04:08:12;;;;;;;0.10;0.10;;;;;;;-9.11;100.00;100667.72;5089562;28;20063;-79
2021/12/25 04:10:50;;;;;;;0.10;0.10;;;;;;;-9.08;100.00;100669.22;5087784;28;20075;-79
2021/12/25 04:13:23;;;;;;;0.10;0.10;;;;;;;-9.11;100.00;100673.00;5091204;28;20067;-80
2021/12/25 04:15:57;;;;;;;0.10;0.10;;;;;;;-9.13;100.00;100659.13;5080548;28;20055;-80
2021/12/25 04:18:30;;;;;;;0.10;0.10;;;;;;;-9.10;100.00;100673.81;5084349;28;20044;-79
2021/12/25 04:21:03;;;;;;;0.20;0.20;;;;;;;-9.06;100.00;100668.09;5083520;28;20408;-80
2021/12/25 04:23:40;;;;;;;0.10;0.10;;;;;;;-9.04;100.00;100670.59;5091271;28;20047;-79
2021/12/25 04:26:15;;;;;;;0.10;0.10;;;;;;;-9.00;100.00;100674.56;5088324;28;20052;-79
2021/12/25 04:29:01;;;;;;;0.13;0.13;;;;;;;-9.00;100.00;100660.53;5088065;28;20052;-79
2021/12/25 04:31:59;;;;;;;0.20;0.20;;;;;;;-8.92;100.00;100668.53;5094450;28;20519;-80
2021/12/25 05:03:44;;;;;;;0.10;0.10;;;;;;;-9.09;100.00;100691.28;5089523;28;20047;-79
2021/12/25 05:06:23;;;;;;;0.10;0.10;;;;;;;-9.05;100.00;100697.94;5090385;28;20055;-79
2021/12/25 05:08:57;;;;;;;0.10;0.10;;;;;;;-9.14;100.00;100696.19;5085007;28;20051;-79
2021/12/25 05:11:31;;;;;;;0.20;0.20;;;;;;;-9.09;100.00;100702.66;5087105;28;20527;-79
2021/12/25 05:13:59;;;;;;;0.20;0.20;;;;;;;-9.06;100.00;100696.25;5097832;28;20047;-80
2021/12/25 05:16:40;;;;;;;0.10;0.10;;;;;;;-9.00;100.00;100703.59;5089942;28;20050;-79
2021/12/25 05:19:14;;;;;;;0.10;0.10;;;;;;;-9.03;100.00;100706.53;5085251;28;20044;-80
2021/12/25 05:21:47;;;;;;;0.10;0.10;;;;;;;-9.09;100.00;100707.94;5091081;28;20055;-79
2021/12/25 05:24:22;;;;;;;0.10;0.10;;;;;;;-9.13;100.00;100700.50;5105342;28;20053;-80
2021/12/25 05:27:00;;;;;;;0.10;0.10;;;;;;;-9.23;100.00;100693.47;5092838;28;20048;-79
2021/12/25 05:29:34;;;;;;;0.10;0.10;;;;;;;-9.17;100.00;100707.84;5088963;28;20042;-79
2021/12/25 05:32:11;;;;;;;0.10;0.10;;;;;;;-9.14;100.00;100702.31;5087678;28;20665;-80
2021/12/25 05:35:09;;;;;;;0.15;0.15;;;;;;;-9.08;100.00;100698.22;5066967;28;20377;-79
2021/12/25 05:38:09;;;;;;;0.10;0.10;;;;;;;-9.15;100.00;100691.91;5109800;28;20377;-80
2021/12/25 05:40:47;;;;;;;0.10;0.10;;;;;;;-9.06;100.00;100704.16;5089727;28;20044;-79
2021/12/25 05:43:21;;;;;;;0.10;0.10;;;;;;;-9.04;100.00;100710.13;5085648;28;20052;-79
2021/12/25 05:45:54;;;;;;;0.10;0.10;;;;;;;-9.05;100.00;100713.75;5095397;28;20051;-80
2021/12/25 05:48:37;;;;;;;0.10;0.10;;;;;;;-9.08;100.00;100714.06;5103642;28;20052;-79
2021/12/25 05:51:32;;;;;;;0.10;0.10;;;;;;;-9.12;100.00;100713.50;5096100;28;20056;-79
2021/12/25 05:54:19;;;;;;;0.10;0.10;;;;;;;-9.08;100.00;100721.97;5087478;28;20064;-79
2021/12/25 05:57:07;;;;;;;0.10;0.10;;;;;;;-9.14;100.00;100714.63;5093827;28;20040;-79
2021/12/25 05:59:58;;;;;;;0.10;0.10;;;;;;;-9.17;100.00;100718.41;5081267;28;20045;-79
2021/12/25 06:02:44;;;;;;;0.10;0.10;;;;;;;-9.23;100.00;100716.38;5099928;28;20055;-79
2021/12/25 06:05:27;;;;;;;0.20;0.20;;;;;;;-9.35;100.00;100717.56;5082526;28;20063;-79
2021/12/25 06:08:00;;;;;;;0.10;0.10;;;;;;;-9.32;100.00;100717.25;5090603;28;20036;-80
2021/12/25 06:10:34;;;;;;;0.10;0.10;;;;;;;-9.40;100.00;100728.56;5091610;28;20048;-79
2021/12/25 06:13:03;;;;;;;0.10;0.10;;;;;;;-9.43;100.00;100727.06;5088437;28;20074;-79
2021/12/25 06:15:39;;;;;;;0.10;0.10;;;;;;;-9.43;100.00;100731.47;5095290;28;20048;-78
2021/12/25 06:18:18;;;;;;;0.38;0.17;;;;;;;-9.42;100.00;100731.34;5106041;28;20391;-79
2021/12/25 06:21:11;;;;;;;0.13;0.13;;;;;;;-9.45;100.00;100731.63;5077784;28;20400;-79
2021/12/25 06:23:52;;;;;;;0.10;0.10;;;;;;;-9.38;100.00;100747.69;5092414;28;20052;-79
2021/12/25 06:26:44;;;;;;;0.10;0.10;;;;;;;-9.47;100.00;100736.22;5094859;28;20415;-79
2021/12/25 06:29:38;;;;;;;0.10;0.10;;;;;;;-9.45;100.00;100752.69;5092240;28;20510;-79
2021/12/25 06:32:35;;;;;;;0.20;0.20;;;;;;;-9.45;100.00;100744.78;5057260;28;20060;-79
2021/12/25 06:35:28;;;;;;;0.10;0.10;;;;;;;-9.46;100.00;100739.69;5102607;28;20051;-80
2021/12/25 06:38:25;;;;;;;0.20;0.20;;;;;;;-9.43;100.00;100739.38;5068998;28;20056;-79
2021/12/25 06:41:04;;;;;;;0.10;0.10;;;;;;;-9.46;100.00;100729.13;5105254;27;20055;-79
2021/12/25 06:43:38;;;;;;;0.10;0.10;;;;;;;-9.54;100.00;100714.09;5089862;28;20059;-79
2021/12/25 06:46:15;;;;;;;;;;;;;;;-9.42;100.00;100736.63;5086180;28;20052;-80
2021/12/25 06:48:48;;;;;;;0.10;0.10;;;;;;;-9.38;100.00;100741.59;5088223;28;20292;-79
2021/12/25 06:51:44;;;;;;;0.10;0.10;;;;;;;-9.37;100.00;100751.16;5086938;28;20048;-79
2021/12/25 06:54:39;;;;;;;0.20;0.20;;;;;;;-9.42;100.00;100749.78;5091137;28;20044;-79
2021/12/25 06:57:20;;;;;;;0.10;0.10;;;;;;;-9.40;100.00;100747.00;5088555;28;20053;-79
2021/12/25 06:59:53;;;;;;;0.10;0.10;;;;;;;-9.36;100.00;100740.47;5089875;28;20412;-79
2021/12/25 07:02:27;;;;;;;0.65;0.17;;;;;;;-9.36;100.00;100742.25;5092217;28;20063;-79
2021/12/25 07:05:18;;;;;;;0.10;0.10;;;;;;;-9.46;100.00;100729.13;5097460;28;20055;-79
2021/12/25 07:08:22;;;;;;;0.10;0.10;;;;;;;-9.34;100.00;100759.59;5088230;28;20495;-80
2021/12/25 07:11:15;;;;;;;0.10;0.10;;;;;;;-9.33;100.00;100742.81;5086776;28;20048;-79
2021/12/25 07:14:05;;;;;;;0.10;0.10;;;;;;;-9.24;100.00;100755.09;5082794;28;20123;-79
2021/12/25 07:17:05;;;;;;;0.10;0.10;;;;;;;-9.29;100.00;100749.44;5090457;28;20511;-80
2021/12/25 07:20:14;;;;;;;0.10;0.10;;;;;;;-9.28;100.00;100756.38;5068482;28;20060;-79
2021/12/25 07:23:06;;;;;;;0.10;0.10;;;;;;;-9.33;100.00;100761.25;5080994;28;20048;-79
2021/12/25 07:25:49;;;;;;;0.10;0.10;;;;;;;-9.30;100.00;100754.84;5104216;28;20041;-79
2021/12/25 07:28:28;;;;;;;0.17;0.17;;;;;;;-9.29;100.00;100765.25;5086673;28;20048;-79
2021/12/25 07:31:01;;;;;;;0.10;0.10;;;;;;;-9.30;100.00;100765.41;5089630;28;20055;-79
2021/12/25 07:33:36;;;;;;;0.20;0.20;;;;;;;-9.30;100.00;100774.13;5088580;28;20404;-79
2021/12/25 07:36:11;;;;;;;0.10;0.10;;;;;;;-9.30;100.00;100768.03;5083743;28;20067;-80
2021/12/25 07:38:44;;;;;;;0.20;0.20;;;;;;;-9.35;100.00;100776.38;5084554;28;20056;-79
2021/12/25 07:41:17;;;;;;;0.10;0.10;;;;;;;-9.36;100.00;100768.59;5090964;28;20036;-79
2021/12/25 07:43:52;;;;;;;0.10;0.10;;;;;;;-9.35;100.00;100779.00;5094236;28;20051;-79
2021/12/25 07:46:33;;;;;;;0.10;0.10;;;;;;;-9.12;100.00;100782.06;5088658;28;20051;-79
2021/12/25 07:49:03;;;;;;;0.10;0.10;;;;;;;-9.19;100.00;100788.91;5089925;28;20056;-79
2021/12/25 07:51:32;;;;;;;0.13;0.13;;;;;;;-9.24;100.00;100776.19;5094034;28;20036;-79
2021/12/25 07:54:05;;;;;;;0.10;0.10;;;;;;;-9.28;100.00;100776.59;5087714;28;20043;-79
2021/12/25 07:56:38;;;;;;;0.10;0.10;;;;;;;-9.26;100.00;100791.31;5091004;28;20059;-79
2021/12/25 07:59:13;;;;;;;0.10;0.10;;;;;;;-9.28;100.00;100793.28;5085983;28;20059;-79
2021/12/25 08:01:42;;;;;;;0.10;0.10;;;;;;;-9.30;100.00;100786.47;5091466;28;20072;-79
2021/12/25 08:04:10;;;;;;;0.10;0.10;;;;;;;-9.26;100.00;100787.84;5083829;28;20044;-80
2021/12/25 08:06:39;;;;;;;0.10;0.10;;;;;;;-9.25;100.00;100798.25;5093203;28;20051;-79
2021/12/25 08:09:12;;;;;;;0.20;0.20;;;;;;;-9.17;100.00;100797.50;5091146;28;20051;-79
2021/12/25 08:11:41;;;;;;;0.10;0.10;;;;;;;-9.25;100.00;100789.50;5093718;28;20032;-80
2021/12/25 08:14:15;;;;;;;0.10;0.10;;;;;;;-9.11;100.00;100796.91;5085768;28;20051;-80
2021/12/25 08:16:43;;;;;;;0.20;0.20;;;;;;;-9.08;100.00;100799.25;5083888;28;20045;-79
2021/12/25 08:19:17;;;;;;;0.10;0.10;;;;;;;-9.13;100.00;100787.50;5105068;28;20063;-79
2021/12/25 08:22:06;;;;;;;0.10;0.10;;;;;;;-9.01;100.00;100812.66;5061657;28;20492;-80
2021/12/25 08:24:52;;;;;;;0.10;0.10;;;;;;;-8.96;100.00;100818.34;5086166;28;20063;-79
2021/12/25 08:27:58;;;;;;;0.10;0.10;;;;;;;-8.90;100.00;100807.19;5089559;28;20051;-80
2021/12/25 08:30:53;;;;;;;0.10;0.10;;;;;;;-8.91;100.00;100802.91;5085475;28;20495;-81
2021/12/25 08:33:50;;;;;;;0.20;0.20;;;;;;;-8.80;100.00;100807.09;5065476;28;20043;-81
2021/12/25 08:36:44;;;;;;;0.17;0.17;;;;;;;-8.78;100.00;100818.34;5085599;28;20432;-82
2021/12/25 08:39:12;;;;;;;0.15;0.15;;;;;;;-8.78;100.00;100826.25;5089396;28;20415;-80
2021/12/25 08:41:45;;;;;;;0.10;0.10;;;;;;;-8.70;100.00;100814.94;5085991;28;20047;-78
2021/12/25 08:44:33;;;;;;;0.10;0.10;;;;;;;-8.63;100.00;100804.63;5105564;27;20055;-81
2021/12/25 08:47:12;;;;;;;0.10;0.10;;;;;;;-8.58;100.00;100802.38;5083758;28;20048;-82
2021/12/25 08:49:45;;;;;;;0.10;0.10;;;;;;;-8.47;100.00;100796.03;5084479;28;20054;-81
2021/12/25 08:52:20;;;;;;;0.10;0.10;;;;;;;-8.51;100.00;100792.84;5081073;28;20048;-80
2021/12/25 08:54:49;;;;;;;0.10;0.10;;;;;;;-8.42;100.00;100796.38;5083061;28;20056;-80
2021/12/25 08:57:18;;;;;;;0.15;0.15;;;;;;;-8.32;100.00;100804.22;5083387;28;20044;-80
2021/12/25 08:59:54;;;;;;;0.10;0.10;;;;;;;-8.48;100.00;100792.53;5089321;28;20075;-80
2021/12/25 09:02:28;;;;;;;0.20;0.20;;;;;;;-8.34;100.00;100803.53;5081262;28;20067;-80
2021/12/25 09:05:02;;;;;;;0.10;0.10;;;;;;;-8.17;100.00;100813.22;5086008;28;20047;-80
2021/12/25 09:07:35;;;;;;;0.32;0.20;;;;;;;-8.10;100.00;100811.63;5091774;28;20078;-78
2021/12/25 09:10:09;;;;;;;0.10;0.10;;;;;;;-8.09;100.00;100820.38;5081255;28;20051;-80
2021/12/25 09:12:43;;;;;;;0.15;0.15;;;;;;;-8.06;100.00;100820.09;5113290;27;20040;-81
2021/12/25 09:15:17;;;;;;;0.17;0.17;;;;;;;-8.05;100.00;100817.28;5091362;28;20067;-82
2021/12/25 09:17:52;;;;;;;0.10;0.10;;;;;;;-8.09;100.00;100807.16;5091578;28;20052;-80
2021/12/25 09:20:22;;;;;;;0.75;0.30;;;;;;;-7.98;100.00;100820.13;5093830;28;20420;-81
2021/12/25 09:22:55;;;;;;;0.20;0.20;;;;;;;-7.94;100.00;100816.19;5091117;28;20043;-79
2021/12/25 09:25:29;;;;;;;0.15;0.15;;;;;;;-7.96;100.00;100807.59;5087354;28;20056;-79
2021/12/25 09:28:03;;;;;;;0.20;0.20;;;;;;;-7.78;100.00;100819.94;5092441;28;20040;-80
2021/12/25 09:30:36;;;;;;;0.20;0.20;;;;;;;-7.80;100.00;100803.38;5091778;28;20056;-79
2021/12/25 09:33:11;;;;;;;0.20;0.20;;;;;;;-7.64;100.00;100834.38;4977010;28;20063;-80
2021/12/25 09:35:45;;;;;;;0.20;0.20;;;;;;;-7.58;100.00;100831.94;5042507;28;20053;-80
2021/12/25 09:38:18;;;;;;;0.10;0.10;;;;;;;-7.56;100.00;100831.78;5022728;28;20071;-81
2021/12/25 09:40:51;;;;;;;0.20;0.20;;;;;;;-7.60;100.00;100833.06;5021907;28;20057;-80
2021/12/25 09:43:25;;;;;;;0.20;0.20;;;;;;;-7.59;100.00;100840.84;5029409;28;20580;-79
2021/12/25 09:45:54;;;;;;;0.10;0.10;;;;;;;-7.52;100.00;100848.97;5025702;28;20049;-81
2021/12/25 09:48:24;;;;;;;0.20;0.20;;;;;;;-7.52;100.00;100844.50;5028592;28;20048;-81
2021/12/25 09:50:58;;;;;;;0.10;0.10;;;;;;;-7.45;100.00;100850.00;5026271;28;20056;-79
2021/12/25 09:53:32;;;;;;;0.17;0.17;;;;;;;-7.01;100.00;100852.50;5027397;28;20885;-79
2021/12/25 09:56:06;;;;;;;0.10;0.10;;;;;;;-7.03;100.00;100840.41;5027226;28;20060;-81
2021/12/25 09:58:39;;;;;;;0.10;0.10;;;;;;;-6.99;100.00;100840.94;5023981;28;20063;-80
2021/12/25 10:01:12;;;;;;;0.10;0.10;;;;;;;-6.96;100.00;100852.03;5027392;28;20054;-81
2021/12/25 10:03:46;;;;;;;0.10;0.10;;;;;;;-7.01;100.00;100835.81;5030580;28;20049;-81
2021/12/25 10:06:31;;;;;;;0.20;0.20;;;;;;;-7.01;100.00;100838.47;5029101;28;20054;-80
2021/12/25 10:09:13;;;;;;;0.20;0.20;;;;;;;-6.95;100.00;100836.97;5032096;28;20045;-79
2021/12/25 10:11:59;;;;;;;0.10;0.10;;;;;;;-6.90;100.00;100847.91;5029675;28;20044;-80
2021/12/25 10:14:33;;;;;;;0.17;0.17;;;;;;;-6.71;100.00;100850.28;5027442;28;20053;-79
2021/12/25 10:17:14;;;;;;;0.20;0.20;;;;;;;-6.66;100.00;100847.13;5029318;28;20053;-81
2021/12/25 10:20:07;;;;;;;0.20;0.20;;;;;;;-6.55;100.00;100841.53;5032811;28;20053;-82
2021/12/25 10:23:12;;;;;;;0.17;0.17;;;;;;;-6.57;100.00;100832.94;5029466;28;20049;-81
2021/12/25 10:25:47;;;;;;;0.10;0.10;;;;;;;-6.55;100.00;100840.72;5027291;28;20041;-80
2021/12/25 10:28:19;;;;;;;0.20;0.20;;;;;;;-6.57;100.00;100826.78;5035350;28;20321;-80
2021/12/25 10:30:50;;;;;;;0.20;0.20;;;;;;;-6.53;100.00;100834.25;5029588;28;20049;-80
2021/12/25 10:33:32;;;;;;;0.15;0.15;;;;;;;-6.53;100.00;100828.13;5010197;28;20702;-80
2021/12/25 10:36:11;;;;;;;0.10;0.10;;;;;;;-6.40;100.00;100828.47;5038179;28;20045;-81
2021/12/25 10:38:39;;;;;;;0.20;0.20;;;;;;;-6.32;100.00;100836.41;5040658;28;20037;-80
2021/12/25 10:41:20;;;;;;;0.20;0.20;;;;;;;-6.35;100.00;100836.75;5039912;28;20049;-81
2021/12/25 10:43:52;;;;;;;0.20;0.20;;;;;;;-6.35;100.00;100834.09;5040076;28;21299;-81
2021/12/25 10:46:25;;;;;;;0.13;0.13;;;;;;;-6.18;100.00;100847.34;5037334;28;20054;-81
2021/12/25 10:48:54;;;;;;;0.10;0.10;;;;;;;-5.92;100.00;100848.94;5040429;28;20056;-80
2021/12/25 10:51:28;;;;;;;0.10;0.10;;;;;;;-5.97;100.00;100835.44;5037373;28;20415;-81
2021/12/25 10:53:58;;;;;;;0.20;0.20;;;;;;;-5.97;100.00;100830.91;5041672;28;20061;-81
2021/12/25 10:56:37;;;;;;;0.20;0.20;;;;;;;-5.86;100.00;100824.44;5041133;28;20053;-81
2021/12/25 10:59:14;;;;;;;0.20;0.20;;;;;;;-5.86;100.00;100832.41;5042365;28;20056;-83
2021/12/25 11:01:45;;;;;;;0.20;0.20;;;;;;;-5.85;100.00;100831.41;5036149;28;20064;-82
2021/12/25 11:04:26;;;;;;;0.28;0.28;;;;;;;-5.84;100.00;100823.28;5039437;28;20053;-80
2021/12/25 11:07:13;;;;;;;0.20;0.20;;;;;;;-5.76;100.00;100819.78;5043002;28;20045;-81
2021/12/25 11:09:41;;;;;;;0.20;0.20;;;;;;;-5.81;100.00;100807.03;5042325;28;20057;-81
2021/12/25 11:12:21;;;;;;;0.20;0.20;;;;;;;-5.72;100.00;100815.78;5040572;28;20072;-81
2021/12/25 11:15:09;;;;;;;0.20;0.20;;;;;;;-5.68;100.00;100818.94;5042618;28;20763;-82
2021/12/25 11:17:49;;;;;;;0.10;0.10;;;;;;;-5.61;100.00;100825.22;5046025;28;20071;-80
2021/12/25 11:20:26;;;;;;;0.10;0.10;;;;;;;-5.62;100.00;100815.63;5048812;28;20390;-81
2021/12/25 11:22:58;;;;;;;0.22;0.22;;;;;;;-5.56;100.00;100827.38;5047113;28;20052;-81
2021/12/25 11:25:33;;;;;;;0.13;0.13;;;;;;;-5.49;100.00;100825.69;5050449;28;20059;-81
2021/12/25 11:28:10;;;;;;;0.20;0.20;;;;;;;-5.47;100.00;100815.72;5049173;28;20064;-80
2021/12/25 11:30:46;;;;;;;0.20;0.20;;;;;;;-5.43;100.00;100818.88;5053922;28;20059;-80
2021/12/25 11:33:19;;;;;;;0.20;0.20;;;;;;;-5.43;100.00;100817.03;5050803;28;20759;-80
2021/12/25 11:35:53;;;;;;;0.10;0.10;;;;;;;-5.39;100.00;100809.56;5056108;28;20045;-81
2021/12/25 11:38:22;;;;;;;0.20;0.20;;;;;;;-5.29;100.00;100812.84;5047257;28;20053;-80
2021/12/25 11:41:04;;;;;;;0.20;0.20;;;;;;;-5.21;100.00;100814.63;5057480;28;20048;-80
2021/12/25 11:43:36;;;;;;;0.20;0.20;;;;;;;-5.13;100.00;100820.72;5058506;28;20053;-80
2021/12/25 11:46:10;;;;;;;0.10;0.10;;;;;;;-5.20;100.00;100821.59;5047066;28;20070;-80
2021/12/25 11:48:39;;;;;;;0.20;0.20;;;;;;;-5.09;100.00;100818.56;5044452;28;20079;-80
2021/12/25 11:51:29;;;;;;;0.20;0.20;;;;;;;-5.05;100.00;100825.19;5051126;28;20048;-81
2021/12/25 11:54:16;;;;;;;0.20;0.20;;;;;;;-5.01;100.00;100826.47;5051089;28;20041;-80
2021/12/25 11:57:04;;;;;;;0.20;0.20;;;;;;;-5.05;100.00;100811.91;5042243;28;20067;-81
2021/12/25 11:59:44;;;;;;;0.20;0.20;;;;;;;-4.99;100.00;100824.47;5047223;28;20052;-81
2021/12/25 12:02:33;;;;;;;0.10;0.10;;;;;;;-4.96;100.00;100826.81;5048547;28;20067;-81
2021/12/25 12:05:21;;;;;;;0.15;0.15;;;;;;;-4.79;100.00;100821.41;5051611;28;20041;-82
2021/12/25 12:08:04;;;;;;;0.13;0.13;;;;;;;-4.72;100.00;100826.81;5042513;28;20041;-81
2021/12/25 12:11:04;;;;;;;0.10;0.10;;;;;;;-4.51;100.00;100824.34;5043604;28;20061;-80
2021/12/25 12:13:38;;;;;;;0.20;0.20;;;;;;;-4.40;100.00;100817.81;5055384;28;20063;-80
2021/12/25 12:16:49;;;;;;;0.20;0.20;;;;;;;-4.37;100.00;100812.13;5052090;28;20052;-81
2021/12/25 12:19:47;;;;;;;0.20;0.20;;;;;;;-4.36;100.00;100813.78;5047488;28;20543;-80
2021/12/25 12:23:00;;;;;;;0.20;0.20;;;;;;;-4.39;100.00;100813.31;5048494;28;20045;-80
2021/12/25 12:26:00;;;;;;;0.20;0.20;;;;;;;-4.44;100.00;100804.03;5052726;28;20037;-80
2021/12/25 12:28:55;;;;;;;0.20;0.20;;;;;;;-4.51;100.00;100803.09;5051289;28;20520;-81
2021/12/25 12:31:40;;;;;;;0.10;0.10;;;;;;;-4.47;100.00;100811.56;5044823;28;20091;-81
2021/12/25 12:34:33;;;;;;;0.20;0.20;;;;;;;-4.48;100.00;100810.72;5034807;28;20061;-81
2021/12/25 12:37:26;;;;;;;0.20;0.20;;;;;;;-4.50;100.00;100803.91;5039097;28;20622;-81
2021/12/25 12:40:26;;;;;;;0.10;0.10;;;;;;;-4.42;100.00;100803.03;5035868;28;20045;-82
2021/12/25 12:43:02;;;;;;;0.10;0.10;;;;;;;-4.36;100.00;100812.97;5041616;28;20882;-80
2021/12/25 12:45:37;;;;;;;0.17;0.17;;;;;;;-4.39;100.00;100808.00;5038370;28;20044;-82
2021/12/25 12:48:19;;;;;;;0.30;0.13;;;;;;;-4.34;100.00;100810.94;5040645;28;20052;-80
2021/12/25 12:50:50;;;;;;;0.20;0.20;;;;;;;-4.42;100.00;100809.16;5037292;28;20060;-81
2021/12/25 12:53:19;;;;;;;0.15;0.15;;;;;;;-4.36;100.00;100808.47;5041828;28;20057;-81
2021/12/25 12:55:55;;;;;;;0.20;0.20;;;;;;;-4.37;100.00;100816.63;5040743;28;20049;-80
2021/12/25 12:58:25;;;;;;;0.20;0.20;;;;;;;-4.38;100.00;100814.97;5040090;28;20068;-80
2021/12/25 13:01:01;;;;;;;0.20;0.20;;;;;;;-4.32;100.00;100820.41;5040040;28;20045;-81
2021/12/25 13:03:35;;;;;;;0.20;0.20;;;;;;;-4.45;100.00;100801.56;5038083;28;20064;-82